PWSweather.com
Personal Weather Stations
Station Observations
WD4JKH
Forsyth, GA 31029

Forsyth, GA 31029

Lat: 33.033225, Lon: -83.927995

Elevation: 709

Station Type: Davis Vantage VUE

High Low Average
Temperature 47.2°F8.4°C 40.0°F4.4°C 43.9°F6.6°C
Dew Point 46.7°F8.2°C 38.6°F3.7°C 43.1°F6.2°C
Winds 11.2 mph 18.0 kmh 1.0 mph 1.6 kmh 5.0 mph ENE8.0 kmh ENE
Wind Gusts 18.0 mph29.0 kmh 5.0 mph8.0 kmh 11.0 mph17.7 kmh
Humidity 98% 94% 97%
Pressure 30.33 in1027.1 mb 30.10 in1019.3 mb -
Precipitation 0.08 in2.0 mm - -
Hour Temp Dew Point Humidity Winds Wind Gusts Pressure Precip Precip Rate Daily Precip Total
12:03 AM 40.0°F4.4°C 38.6°F3.7°C 95% 5.6 mph E9.0 kmh E 17.0 mph27.4 kmh 30.33 in1027.1 mb 0.01 in0.3 mm 0.20 in5.1 mm 0.01 in0.3 mm
12:08 AM 40.0°F4.4°C 38.9°F3.8°C 96% 9.0 mph ENE14.5 kmh ENE 17.0 mph27.4 kmh 30.32 in1026.8 mb 0.01 in0.3 mm 0.00 in0.0 mm 0.01 in0.3 mm
12:13 AM 40.1°F4.5°C 39.0°F3.9°C 96% 6.4 mph ENE10.3 kmh ENE 14.0 mph22.5 kmh 30.32 in1026.8 mb 0.01 in0.3 mm 0.00 in0.0 mm 0.01 in0.3 mm
12:17 AM 40.1°F4.5°C 39.0°F3.9°C 96% 8.5 mph ENE13.7 kmh ENE 16.0 mph25.7 kmh 30.32 in1026.8 mb 0.01 in0.3 mm 0.00 in0.0 mm 0.01 in0.3 mm
12:22 AM 40.2°F4.6°C 38.8°F3.8°C 95% 6.5 mph E10.5 kmh E 16.0 mph25.7 kmh 30.32 in1026.8 mb 0.01 in0.3 mm 0.00 in0.0 mm 0.01 in0.3 mm
12:27 AM 40.2°F4.6°C 38.8°F3.8°C 95% 7.4 mph E11.9 kmh E 16.0 mph25.7 kmh 30.32 in1026.8 mb 0.01 in0.3 mm 0.00 in0.0 mm 0.01 in0.3 mm
12:32 AM 40.3°F4.6°C 38.9°F3.8°C 95% 6.6 mph ENE10.6 kmh ENE 16.0 mph25.7 kmh 30.32 in1026.8 mb 0.01 in0.3 mm 0.00 in0.0 mm 0.01 in0.3 mm
12:37 AM 40.3°F4.6°C 38.9°F3.8°C 95% 6.9 mph E11.1 kmh E 15.0 mph24.1 kmh 30.32 in1026.8 mb 0.00 in0.0 mm 0.00 in0.0 mm 0.01 in0.3 mm
12:42 AM 40.3°F4.6°C 38.9°F3.8°C 95% 9.0 mph E14.5 kmh E 16.0 mph25.7 kmh 30.32 in1026.8 mb 0.00 in0.0 mm 0.00 in0.0 mm 0.01 in0.3 mm
12:47 AM 40.3°F4.6°C 38.9°F3.8°C 95% 6.3 mph E10.1 kmh E 16.0 mph25.7 kmh 30.32 in1026.8 mb 0.00 in0.0 mm 0.00 in0.0 mm 0.01 in0.3 mm
12:52 AM 40.4°F4.7°C 39.0°F3.9°C 95% 6.6 mph E10.6 kmh E 16.0 mph25.7 kmh 30.32 in1026.8 mb 0.00 in0.0 mm 0.00 in0.0 mm 0.01 in0.3 mm
12:57 AM 40.4°F4.7°C 39.1°F3.9°C 95% 6.2 mph E10.0 kmh E 16.0 mph25.7 kmh 30.32 in1026.8 mb 0.00 in0.0 mm 0.00 in0.0 mm 0.01 in0.3 mm
01:02 AM 40.4°F4.7°C 39.0°F3.9°C 95% 9.1 mph E14.6 kmh E 15.0 mph24.1 kmh 30.32 in1026.8 mb 0.00 in0.0 mm 0.00 in0.0 mm 0.01 in0.3 mm
01:07 AM 40.4°F4.7°C 39.0°F3.9°C 95% 5.6 mph E9.0 kmh E 15.0 mph24.1 kmh 30.31 in1026.4 mb 0.00 in0.0 mm 0.00 in0.0 mm 0.01 in0.3 mm
01:12 AM 40.5°F4.7°C 39.1°F3.9°C 95% 10.3 mph E16.6 kmh E 15.0 mph24.1 kmh 30.31 in1026.4 mb 0.00 in0.0 mm 0.00 in0.0 mm 0.01 in0.3 mm
01:17 AM 40.5°F4.7°C 39.2°F4.0°C 95% 11.2 mph E18.0 kmh E 16.0 mph25.7 kmh 30.31 in1026.4 mb 0.00 in0.0 mm 0.00 in0.0 mm 0.01 in0.3 mm
01:22 AM 40.5°F4.7°C 39.2°F4.0°C 95% 11.0 mph E17.7 kmh E 18.0 mph29.0 kmh 30.31 in1026.4 mb 0.00 in0.0 mm 0.00 in0.0 mm 0.01 in0.3 mm
01:27 AM 40.6°F4.8°C 39.0°F3.9°C 94% 7.9 mph E12.7 kmh E 18.0 mph29.0 kmh 30.30 in1026.1 mb 0.00 in0.0 mm 0.00 in0.0 mm 0.01 in0.3 mm
01:32 AM 40.6°F4.8°C 39.0°F3.9°C 94% 5.1 mph E8.2 kmh E 18.0 mph29.0 kmh 30.31 in1026.4 mb 0.00 in0.0 mm 0.00 in0.0 mm 0.01 in0.3 mm
01:37 AM 40.6°F4.8°C 39.2°F4.0°C 95% 4.6 mph ENE7.4 kmh ENE 18.0 mph29.0 kmh 30.31 in1026.4 mb 0.00 in0.0 mm 0.00 in0.0 mm 0.01 in0.3 mm
01:42 AM 40.5°F4.7°C 39.1°F3.9°C 95% 10.2 mph E16.4 kmh E 17.0 mph27.4 kmh 30.30 in1026.1 mb 0.00 in0.0 mm 0.00 in0.0 mm 0.01 in0.3 mm
01:47 AM 40.5°F4.7°C 39.1°F3.9°C 95% 6.6 mph E10.6 kmh E 17.0 mph27.4 kmh 30.30 in1026.1 mb 0.00 in0.0 mm 0.00 in0.0 mm 0.01 in0.3 mm
01:52 AM 40.6°F4.8°C 39.2°F4.0°C 95% 6.9 mph E11.1 kmh E 17.0 mph27.4 kmh 30.30 in1026.1 mb 0.00 in0.0 mm 0.00 in0.0 mm 0.01 in0.3 mm
01:57 AM 40.5°F4.7°C 39.1°F3.9°C 95% 6.4 mph ENE10.3 kmh ENE 17.0 mph27.4 kmh 30.30 in1026.1 mb 0.00 in0.0 mm 0.00 in0.0 mm 0.01 in0.3 mm
02:02 AM 40.5°F4.7°C 39.2°F4.0°C 95% 7.9 mph E12.7 kmh E 17.0 mph27.4 kmh 30.29 in1025.7 mb 0.00 in0.0 mm 0.00 in0.0 mm 0.01 in0.3 mm
02:07 AM 40.5°F4.7°C 39.1°F3.9°C 95% 10.1 mph E16.3 kmh E 18.0 mph29.0 kmh 30.29 in1025.7 mb 0.00 in0.0 mm 0.00 in0.0 mm 0.01 in0.3 mm
02:12 AM 40.6°F4.8°C 39.2°F4.0°C 95% 5.8 mph E9.3 kmh E 18.0 mph29.0 kmh 30.29 in1025.7 mb 0.00 in0.0 mm 0.00 in0.0 mm 0.01 in0.3 mm
02:17 AM 40.5°F4.7°C 39.1°F3.9°C 95% 5.8 mph E9.3 kmh E 18.0 mph29.0 kmh 30.29 in1025.7 mb 0.00 in0.0 mm 0.00 in0.0 mm 0.01 in0.3 mm
02:22 AM 40.6°F4.8°C 39.3°F4.1°C 95% 9.7 mph E15.6 kmh E 18.0 mph29.0 kmh 30.28 in1025.4 mb 0.00 in0.0 mm 0.00 in0.0 mm 0.01 in0.3 mm
02:27 AM 40.6°F4.8°C 39.2°F4.0°C 95% 7.1 mph ENE11.4 kmh ENE 17.0 mph27.4 kmh 30.29 in1025.7 mb 0.00 in0.0 mm 0.00 in0.0 mm 0.01 in0.3 mm
02:32 AM 40.6°F4.8°C 39.2°F4.0°C 95% 8.9 mph E14.3 kmh E 17.0 mph27.4 kmh 30.29 in1025.7 mb 0.00 in0.0 mm 0.00 in0.0 mm 0.01 in0.3 mm
02:37 AM 40.6°F4.8°C 39.3°F4.1°C 95% 8.2 mph E13.2 kmh E 17.0 mph27.4 kmh 30.28 in1025.4 mb 0.00 in0.0 mm 0.00 in0.0 mm 0.01 in0.3 mm
02:42 AM 40.7°F4.8°C 39.4°F4.1°C 95% 7.5 mph ENE12.1 kmh ENE 17.0 mph27.4 kmh 30.28 in1025.4 mb 0.00 in0.0 mm 0.00 in0.0 mm 0.01 in0.3 mm
02:47 AM 40.7°F4.8°C 39.4°F4.1°C 95% 7.6 mph E12.2 kmh E 16.0 mph25.7 kmh 30.28 in1025.4 mb 0.00 in0.0 mm 0.00 in0.0 mm 0.01 in0.3 mm
02:52 AM 40.8°F4.9°C 39.4°F4.1°C 95% 8.6 mph ENE13.8 kmh ENE 16.0 mph25.7 kmh 30.28 in1025.4 mb 0.00 in0.0 mm 0.00 in0.0 mm 0.01 in0.3 mm
02:57 AM 40.8°F4.9°C 39.4°F4.1°C 95% 7.6 mph E12.2 kmh E 16.0 mph25.7 kmh 30.27 in1025.1 mb 0.00 in0.0 mm 0.00 in0.0 mm 0.01 in0.3 mm
03:02 AM 40.8°F4.9°C 39.4°F4.1°C 95% 5.6 mph E9.0 kmh E 16.0 mph25.7 kmh 30.27 in1025.1 mb 0.00 in0.0 mm 0.00 in0.0 mm 0.01 in0.3 mm
03:07 AM 40.9°F4.9°C 39.5°F4.2°C 95% 7.3 mph E11.7 kmh E 16.0 mph25.7 kmh 30.27 in1025.1 mb 0.00 in0.0 mm 0.00 in0.0 mm 0.01 in0.3 mm
03:12 AM 40.9°F4.9°C 39.5°F4.2°C 95% 5.4 mph ENE8.7 kmh ENE 14.0 mph22.5 kmh 30.27 in1025.1 mb 0.00 in0.0 mm 0.00 in0.0 mm 0.01 in0.3 mm
03:17 AM 41.0°F5.0°C 39.6°F4.2°C 95% 9.4 mph E15.1 kmh E 16.0 mph25.7 kmh 30.26 in1024.7 mb 0.00 in0.0 mm 0.00 in0.0 mm 0.01 in0.3 mm
03:22 AM 41.0°F5.0°C 39.7°F4.3°C 95% 5.1 mph ENE8.2 kmh ENE 16.0 mph25.7 kmh 30.26 in1024.7 mb 0.00 in0.0 mm 0.00 in0.0 mm 0.01 in0.3 mm
03:27 AM 41.1°F5.1°C 39.7°F4.3°C 95% 7.1 mph E11.4 kmh E 16.0 mph25.7 kmh 30.26 in1024.7 mb 0.00 in0.0 mm 0.00 in0.0 mm 0.01 in0.3 mm
03:32 AM 41.1°F5.1°C 40.0°F4.4°C 96% 4.8 mph NE7.7 kmh NE 16.0 mph25.7 kmh 30.26 in1024.7 mb 0.00 in0.0 mm 0.00 in0.0 mm 0.01 in0.3 mm
03:37 AM 41.2°F5.1°C 40.1°F4.5°C 96% 4.6 mph ENE7.4 kmh ENE 17.0 mph27.4 kmh 30.26 in1024.7 mb 0.00 in0.0 mm 0.00 in0.0 mm 0.01 in0.3 mm
03:42 AM 41.2°F5.1°C 39.8°F4.3°C 95% 6.4 mph NE10.3 kmh NE 17.0 mph27.4 kmh 30.26 in1024.7 mb 0.00 in0.0 mm 0.00 in0.0 mm 0.01 in0.3 mm
03:47 AM 41.2°F5.1°C 39.8°F4.3°C 95% 4.7 mph E7.6 kmh E 17.0 mph27.4 kmh 30.26 in1024.7 mb 0.00 in0.0 mm 0.00 in0.0 mm 0.01 in0.3 mm
03:52 AM 41.3°F5.2°C 40.2°F4.6°C 96% 3.4 mph ENE5.5 kmh ENE 17.0 mph27.4 kmh 30.26 in1024.7 mb 0.00 in0.0 mm 0.00 in0.0 mm 0.01 in0.3 mm
03:57 AM 41.3°F5.2°C 40.2°F4.6°C 96% 4.4 mph ENE7.1 kmh ENE 12.0 mph19.3 kmh 30.26 in1024.7 mb 0.00 in0.0 mm 0.00 in0.0 mm 0.01 in0.3 mm
04:02 AM 41.3°F5.2°C 40.2°F4.6°C 96% 4.5 mph ENE7.2 kmh ENE 10.0 mph16.1 kmh 30.26 in1024.7 mb 0.00 in0.0 mm 0.00 in0.0 mm 0.01 in0.3 mm
04:07 AM 41.4°F5.2°C 40.3°F4.6°C 96% 5.8 mph ENE9.3 kmh ENE 9.0 mph14.5 kmh 30.26 in1024.7 mb 0.00 in0.0 mm 0.00 in0.0 mm 0.01 in0.3 mm
04:12 AM 41.4°F5.2°C 40.3°F4.6°C 96% 4.3 mph ENE6.9 kmh ENE 10.0 mph16.1 kmh 30.25 in1024.4 mb 0.00 in0.0 mm 0.00 in0.0 mm 0.01 in0.3 mm
04:17 AM 41.5°F5.3°C 40.4°F4.7°C 96% 6.3 mph E10.1 kmh E 14.0 mph22.5 kmh 30.26 in1024.7 mb 0.00 in0.0 mm 0.00 in0.0 mm 0.01 in0.3 mm
04:22 AM 41.5°F5.3°C 40.1°F4.5°C 95% 5.3 mph ENE8.5 kmh ENE 14.0 mph22.5 kmh 30.26 in1024.7 mb 0.00 in0.0 mm 0.00 in0.0 mm 0.01 in0.3 mm
04:27 AM 41.5°F5.3°C 40.1°F4.5°C 95% 5.0 mph E8.0 kmh E 14.0 mph22.5 kmh 30.26 in1024.7 mb 0.00 in0.0 mm 0.00 in0.0 mm 0.01 in0.3 mm
04:32 AM 41.5°F5.3°C 40.1°F4.5°C 95% 6.6 mph NE10.6 kmh NE 14.0 mph22.5 kmh 30.25 in1024.4 mb 0.00 in0.0 mm 0.00 in0.0 mm 0.01 in0.3 mm
04:37 AM 41.5°F5.3°C 40.4°F4.7°C 96% 3.0 mph NE4.8 kmh NE 11.0 mph17.7 kmh 30.25 in1024.4 mb 0.01 in0.3 mm 0.12 in3.0 mm 0.01 in0.3 mm
04:42 AM 41.5°F5.3°C 40.4°F4.7°C 96% 5.7 mph ENE9.2 kmh ENE 11.0 mph17.7 kmh 30.25 in1024.4 mb 0.01 in0.3 mm 0.00 in0.0 mm 0.01 in0.3 mm
04:47 AM 41.4°F5.2°C 40.3°F4.6°C 96% 5.6 mph ENE9.0 kmh ENE 11.0 mph17.7 kmh 30.25 in1024.4 mb 0.01 in0.3 mm 0.00 in0.0 mm 0.01 in0.3 mm
04:52 AM 41.3°F5.2°C 40.2°F4.6°C 96% 6.4 mph ENE10.3 kmh ENE 10.0 mph16.1 kmh 30.24 in1024.0 mb 0.02 in0.5 mm 0.12 in3.0 mm 0.02 in0.5 mm
04:57 AM 41.3°F5.2°C 40.2°F4.6°C 96% 6.7 mph ENE10.8 kmh ENE 11.0 mph17.7 kmh 30.23 in1023.7 mb 0.02 in0.5 mm 0.00 in0.0 mm 0.02 in0.5 mm
05:02 AM 41.2°F5.1°C 40.1°F4.5°C 96% 4.8 mph ENE7.7 kmh ENE 12.0 mph19.3 kmh 30.22 in1023.4 mb 0.02 in0.5 mm 0.00 in0.0 mm 0.02 in0.5 mm
05:07 AM 41.1°F5.1°C 40.0°F4.4°C 96% 5.1 mph NE8.2 kmh NE 12.0 mph19.3 kmh 30.23 in1023.7 mb 0.02 in0.5 mm 0.00 in0.0 mm 0.02 in0.5 mm
05:12 AM 41.0°F5.0°C 39.9°F4.4°C 96% 2.5 mph NE4.0 kmh NE 12.0 mph19.3 kmh 30.24 in1024.0 mb 0.02 in0.5 mm 0.00 in0.0 mm 0.02 in0.5 mm
05:16 AM 40.9°F4.9°C 39.8°F4.3°C 96% 4.2 mph NE6.8 kmh NE 12.0 mph19.3 kmh 30.24 in1024.0 mb 0.02 in0.5 mm 0.00 in0.0 mm 0.02 in0.5 mm
05:21 AM 40.9°F4.9°C 40.1°F4.5°C 97% 3.6 mph ENE5.8 kmh ENE 11.0 mph17.7 kmh 30.24 in1024.0 mb 0.02 in0.5 mm 0.00 in0.0 mm 0.02 in0.5 mm
05:26 AM 40.9°F4.9°C 40.1°F4.5°C 97% 4.6 mph ENE7.4 kmh ENE 10.0 mph16.1 kmh 30.23 in1023.7 mb 0.03 in0.8 mm 0.12 in3.0 mm 0.03 in0.8 mm
05:31 AM 41.0°F5.0°C 40.2°F4.6°C 97% 8.1 mph ENE13.0 kmh ENE 15.0 mph24.1 kmh 30.23 in1023.7 mb 0.05 in1.3 mm 0.24 in6.1 mm 0.05 in1.3 mm
05:36 AM 41.0°F5.0°C 40.2°F4.6°C 97% 4.0 mph ENE6.4 kmh ENE 15.0 mph24.1 kmh 30.23 in1023.7 mb 0.04 in1.0 mm 0.00 in0.0 mm 0.05 in1.3 mm
05:41 AM 41.0°F5.0°C 40.2°F4.6°C 97% 5.5 mph NE8.9 kmh NE 15.0 mph24.1 kmh 30.23 in1023.7 mb 0.04 in1.0 mm 0.00 in0.0 mm 0.05 in1.3 mm
05:46 AM 40.9°F4.9°C 40.1°F4.5°C 97% 3.4 mph NE5.5 kmh NE 15.0 mph24.1 kmh 30.24 in1024.0 mb 0.04 in1.0 mm 0.00 in0.0 mm 0.05 in1.3 mm
05:51 AM 40.8°F4.9°C 40.0°F4.4°C 97% 3.9 mph NE6.3 kmh NE 9.0 mph14.5 kmh 30.24 in1024.0 mb 0.03 in0.8 mm 0.00 in0.0 mm 0.05 in1.3 mm
05:56 AM 40.8°F4.9°C 40.0°F4.4°C 97% 4.2 mph NE6.8 kmh NE 11.0 mph17.7 kmh 30.23 in1023.7 mb 0.03 in0.8 mm 0.00 in0.0 mm 0.05 in1.3 mm
06:01 AM 40.8°F4.9°C 40.0°F4.4°C 97% 6.6 mph NE10.6 kmh NE 11.0 mph17.7 kmh 30.23 in1023.7 mb 0.03 in0.8 mm 0.00 in0.0 mm 0.05 in1.3 mm
06:06 AM 40.8°F4.9°C 40.0°F4.4°C 97% 5.4 mph NE8.7 kmh NE 12.0 mph19.3 kmh 30.23 in1023.7 mb 0.03 in0.8 mm 0.00 in0.0 mm 0.05 in1.3 mm
06:11 AM 40.8°F4.9°C 40.0°F4.4°C 97% 2.5 mph NE4.0 kmh NE 12.0 mph19.3 kmh 30.23 in1023.7 mb 0.03 in0.8 mm 0.00 in0.0 mm 0.05 in1.3 mm
06:16 AM 40.8°F4.9°C 40.0°F4.4°C 97% 5.1 mph NE8.2 kmh NE 12.0 mph19.3 kmh 30.23 in1023.7 mb 0.03 in0.8 mm 0.00 in0.0 mm 0.05 in1.3 mm
06:21 AM 40.7°F4.8°C 39.9°F4.4°C 97% 2.7 mph NE4.3 kmh NE 11.0 mph17.7 kmh 30.23 in1023.7 mb 0.03 in0.8 mm 0.00 in0.0 mm 0.05 in1.3 mm
06:26 AM 40.7°F4.8°C 39.9°F4.4°C 97% 2.7 mph NE4.3 kmh NE 11.0 mph17.7 kmh 30.23 in1023.7 mb 0.02 in0.5 mm 0.00 in0.0 mm 0.05 in1.3 mm
06:31 AM 40.7°F4.8°C 39.9°F4.4°C 97% 4.6 mph ENE7.4 kmh ENE 11.0 mph17.7 kmh 30.22 in1023.4 mb 0.00 in0.0 mm 0.00 in0.0 mm 0.05 in1.3 mm
06:36 AM 40.6°F4.8°C 39.8°F4.3°C 97% 5.8 mph ENE9.3 kmh ENE 11.0 mph17.7 kmh 30.23 in1023.7 mb 0.00 in0.0 mm 0.00 in0.0 mm 0.05 in1.3 mm
06:41 AM 40.7°F4.8°C 39.9°F4.4°C 97% 4.2 mph NE6.8 kmh NE 11.0 mph17.7 kmh 30.23 in1023.7 mb 0.00 in0.0 mm 0.00 in0.0 mm 0.05 in1.3 mm
06:46 AM 40.7°F4.8°C 39.9°F4.4°C 97% 4.8 mph ENE7.7 kmh ENE 11.0 mph17.7 kmh 30.22 in1023.4 mb 0.00 in0.0 mm 0.00 in0.0 mm 0.05 in1.3 mm
06:51 AM 40.7°F4.8°C 39.9°F4.4°C 97% 6.2 mph NE10.0 kmh NE 11.0 mph17.7 kmh 30.22 in1023.4 mb 0.00 in0.0 mm 0.00 in0.0 mm 0.05 in1.3 mm
06:56 AM 40.7°F4.8°C 39.9°F4.4°C 97% 2.3 mph NE3.7 kmh NE 11.0 mph17.7 kmh 30.23 in1023.7 mb 0.00 in0.0 mm 0.00 in0.0 mm 0.05 in1.3 mm
07:01 AM 40.6°F4.8°C 39.8°F4.3°C 97% 4.2 mph NE6.8 kmh NE 11.0 mph17.7 kmh 30.23 in1023.7 mb 0.00 in0.0 mm 0.00 in0.0 mm 0.05 in1.3 mm
07:06 AM 40.7°F4.8°C 39.9°F4.4°C 97% 3.3 mph NE5.3 kmh NE 11.0 mph17.7 kmh 30.23 in1023.7 mb 0.00 in0.0 mm 0.00 in0.0 mm 0.05 in1.3 mm
07:11 AM 40.7°F4.8°C 39.9°F4.4°C 97% 3.9 mph NE6.3 kmh NE 8.0 mph12.9 kmh 30.23 in1023.7 mb 0.00 in0.0 mm 0.00 in0.0 mm 0.05 in1.3 mm
07:17 AM 40.7°F4.8°C 39.9°F4.4°C 97% 5.1 mph NE8.2 kmh NE 8.0 mph12.9 kmh 30.23 in1023.7 mb 0.00 in0.0 mm 0.00 in0.0 mm 0.06 in1.5 mm
07:22 AM 40.7°F4.8°C 39.9°F4.4°C 97% 3.5 mph ENE5.6 kmh ENE 8.0 mph12.9 kmh 30.23 in1023.7 mb 0.01 in0.3 mm 0.12 in3.0 mm 0.06 in1.5 mm
07:27 AM 40.7°F4.8°C 39.9°F4.4°C 97% 4.4 mph ENE7.1 kmh ENE 9.0 mph14.5 kmh 30.23 in1023.7 mb 0.01 in0.3 mm 0.00 in0.0 mm 0.06 in1.5 mm
07:32 AM 40.8°F4.9°C 40.0°F4.4°C 97% 4.7 mph ENE7.6 kmh ENE 9.0 mph14.5 kmh 30.23 in1023.7 mb 0.01 in0.3 mm 0.00 in0.0 mm 0.06 in1.5 mm
07:37 AM 40.8°F4.9°C 40.0°F4.4°C 97% 4.4 mph ENE7.1 kmh ENE 10.0 mph16.1 kmh 30.23 in1023.7 mb 0.01 in0.3 mm 0.00 in0.0 mm 0.06 in1.5 mm
07:42 AM 40.8°F4.9°C 40.0°F4.4°C 97% 5.8 mph ENE9.3 kmh ENE 10.0 mph16.1 kmh 30.22 in1023.4 mb 0.01 in0.3 mm 0.00 in0.0 mm 0.06 in1.5 mm
07:47 AM 40.9°F4.9°C 40.1°F4.5°C 97% 5.7 mph ENE9.2 kmh ENE 10.0 mph16.1 kmh 30.22 in1023.4 mb 0.01 in0.3 mm 0.00 in0.0 mm 0.06 in1.5 mm
07:52 AM 40.9°F4.9°C 40.1°F4.5°C 97% 5.9 mph E9.5 kmh E 12.0 mph19.3 kmh 30.22 in1023.4 mb 0.01 in0.3 mm 0.00 in0.0 mm 0.06 in1.5 mm
07:57 AM 41.0°F5.0°C 40.2°F4.6°C 97% 5.9 mph ENE9.5 kmh ENE 13.0 mph20.9 kmh 30.22 in1023.4 mb 0.01 in0.3 mm 0.00 in0.0 mm 0.06 in1.5 mm
08:02 AM 41.0°F5.0°C 40.2°F4.6°C 97% 4.2 mph NE6.8 kmh NE 13.0 mph20.9 kmh 30.22 in1023.4 mb 0.01 in0.3 mm 0.00 in0.0 mm 0.06 in1.5 mm
08:07 AM 41.1°F5.1°C 40.3°F4.6°C 97% 5.1 mph ENE8.2 kmh ENE 13.0 mph20.9 kmh 30.22 in1023.4 mb 0.01 in0.3 mm 0.00 in0.0 mm 0.06 in1.5 mm
08:12 AM 41.2°F5.1°C 40.7°F4.8°C 98% 5.5 mph ENE8.9 kmh ENE 16.0 mph25.7 kmh 30.22 in1023.4 mb 0.01 in0.3 mm 0.00 in0.0 mm 0.06 in1.5 mm
08:17 AM 41.2°F5.1°C 40.7°F4.8°C 98% 3.9 mph ENE6.3 kmh ENE 16.0 mph25.7 kmh 30.23 in1023.7 mb 0.00 in0.0 mm 0.00 in0.0 mm 0.06 in1.5 mm
08:22 AM 41.3°F5.2°C 40.8°F4.9°C 98% 6.8 mph ENE10.9 kmh ENE 16.0 mph25.7 kmh 30.23 in1023.7 mb 0.00 in0.0 mm 0.00 in0.0 mm 0.06 in1.5 mm
08:27 AM 41.3°F5.2°C 40.8°F4.9°C 98% 4.1 mph NE6.6 kmh NE 16.0 mph25.7 kmh 30.23 in1023.7 mb 0.00 in0.0 mm 0.00 in0.0 mm 0.06 in1.5 mm
08:32 AM 41.4°F5.2°C 40.9°F4.9°C 98% 3.2 mph NE5.1 kmh NE 13.0 mph20.9 kmh 30.24 in1024.0 mb 0.00 in0.0 mm 0.00 in0.0 mm 0.06 in1.5 mm
08:37 AM 41.4°F5.2°C 40.9°F4.9°C 98% 3.0 mph NE4.8 kmh NE 13.0 mph20.9 kmh 30.24 in1024.0 mb 0.00 in0.0 mm 0.00 in0.0 mm 0.06 in1.5 mm
08:42 AM 41.3°F5.2°C 40.8°F4.9°C 98% 3.3 mph NE5.3 kmh NE 13.0 mph20.9 kmh 30.24 in1024.0 mb 0.00 in0.0 mm 0.00 in0.0 mm 0.06 in1.5 mm
08:47 AM 41.4°F5.2°C 40.9°F4.9°C 98% 3.9 mph NE6.3 kmh NE 10.0 mph16.1 kmh 30.24 in1024.0 mb 0.00 in0.0 mm 0.00 in0.0 mm 0.06 in1.5 mm
08:52 AM 41.3°F5.2°C 40.8°F4.9°C 98% 4.8 mph NE7.7 kmh NE 10.0 mph16.1 kmh 30.24 in1024.0 mb 0.00 in0.0 mm 0.00 in0.0 mm 0.06 in1.5 mm
08:57 AM 41.4°F5.2°C 40.9°F4.9°C 98% 4.3 mph NE6.9 kmh NE 9.0 mph14.5 kmh 30.24 in1024.0 mb 0.00 in0.0 mm 0.00 in0.0 mm 0.06 in1.5 mm
09:02 AM 41.4°F5.2°C 40.9°F4.9°C 98% 5.0 mph NE8.0 kmh NE 10.0 mph16.1 kmh 30.24 in1024.0 mb 0.00 in0.0 mm 0.00 in0.0 mm 0.06 in1.5 mm
09:07 AM 41.4°F5.2°C 40.9°F4.9°C 98% 5.2 mph NE8.4 kmh NE 10.0 mph16.1 kmh 30.24 in1024.0 mb 0.00 in0.0 mm 0.00 in0.0 mm 0.06 in1.5 mm
09:12 AM 41.5°F5.3°C 41.0°F5.0°C 98% 4.8 mph ENE7.7 kmh ENE 12.0 mph19.3 kmh 30.24 in1024.0 mb 0.00 in0.0 mm 0.00 in0.0 mm 0.06 in1.5 mm
09:17 AM 41.5°F5.3°C 41.0°F5.0°C 98% 4.4 mph NE7.1 kmh NE 12.0 mph19.3 kmh 30.24 in1024.0 mb 0.00 in0.0 mm 0.00 in0.0 mm 0.06 in1.5 mm
09:22 AM 41.6°F5.3°C 41.1°F5.1°C 98% 4.4 mph ENE7.1 kmh ENE 12.0 mph19.3 kmh 30.24 in1024.0 mb 0.00 in0.0 mm 0.00 in0.0 mm 0.06 in1.5 mm
09:27 AM 41.6°F5.3°C 41.1°F5.1°C 98% 5.3 mph NE8.5 kmh NE 12.0 mph19.3 kmh 30.23 in1023.7 mb 0.00 in0.0 mm 0.00 in0.0 mm 0.06 in1.5 mm
09:32 AM 41.7°F5.4°C 41.2°F5.1°C 98% 3.3 mph NE5.3 kmh NE 11.0 mph17.7 kmh 30.23 in1023.7 mb 0.00 in0.0 mm 0.00 in0.0 mm 0.06 in1.5 mm
09:37 AM 41.6°F5.3°C 41.1°F5.1°C 98% 4.7 mph NE7.6 kmh NE 11.0 mph17.7 kmh 30.23 in1023.7 mb 0.00 in0.0 mm 0.00 in0.0 mm 0.06 in1.5 mm
09:42 AM 41.7°F5.4°C 41.2°F5.1°C 98% 4.2 mph NE6.8 kmh NE 11.0 mph17.7 kmh 30.23 in1023.7 mb 0.00 in0.0 mm 0.00 in0.0 mm 0.06 in1.5 mm
09:47 AM 41.8°F5.4°C 41.3°F5.2°C 98% 5.2 mph NE8.4 kmh NE 11.0 mph17.7 kmh 30.23 in1023.7 mb 0.00 in0.0 mm 0.00 in0.0 mm 0.06 in1.5 mm
09:52 AM 41.7°F5.4°C 41.2°F5.1°C 98% 5.7 mph ENE9.2 kmh ENE 11.0 mph17.7 kmh 30.22 in1023.4 mb 0.00 in0.0 mm 0.00 in0.0 mm 0.06 in1.5 mm
09:57 AM 41.9°F5.5°C 41.4°F5.2°C 98% 5.0 mph ENE8.0 kmh ENE 11.0 mph17.7 kmh 30.22 in1023.4 mb 0.00 in0.0 mm 0.00 in0.0 mm 0.06 in1.5 mm
10:02 AM 41.9°F5.5°C 41.4°F5.2°C 98% 5.1 mph ENE8.2 kmh ENE 11.0 mph17.7 kmh 30.21 in1023.0 mb 0.00 in0.0 mm 0.00 in0.0 mm 0.06 in1.5 mm
10:07 AM 41.9°F5.5°C 41.4°F5.2°C 98% 6.4 mph ENE10.3 kmh ENE 12.0 mph19.3 kmh 30.21 in1023.0 mb 0.00 in0.0 mm 0.00 in0.0 mm 0.06 in1.5 mm
10:12 AM 42.0°F5.6°C 41.5°F5.3°C 98% 5.4 mph ENE8.7 kmh ENE 12.0 mph19.3 kmh 30.21 in1023.0 mb 0.00 in0.0 mm 0.00 in0.0 mm 0.06 in1.5 mm
10:16 AM 42.1°F5.6°C 41.6°F5.3°C 98% 5.9 mph ENE9.5 kmh ENE 12.0 mph19.3 kmh 30.20 in1022.7 mb 0.00 in0.0 mm 0.00 in0.0 mm 0.06 in1.5 mm
10:21 AM 42.1°F5.6°C 41.6°F5.3°C 98% 3.8 mph ENE6.1 kmh ENE 12.0 mph19.3 kmh 30.20 in1022.7 mb 0.01 in0.3 mm 0.12 in3.0 mm 0.07 in1.8 mm
10:26 AM 42.3°F5.7°C 41.8°F5.4°C 98% 3.0 mph ENE4.8 kmh ENE 11.0 mph17.7 kmh 30.20 in1022.7 mb 0.01 in0.3 mm 0.00 in0.0 mm 0.07 in1.8 mm
10:31 AM 42.4°F5.8°C 41.9°F5.5°C 98% 4.9 mph ENE7.9 kmh ENE 11.0 mph17.7 kmh 30.20 in1022.7 mb 0.01 in0.3 mm 0.00 in0.0 mm 0.07 in1.8 mm
10:36 AM 42.4°F5.8°C 41.9°F5.5°C 98% 4.5 mph E7.2 kmh E 10.0 mph16.1 kmh 30.20 in1022.7 mb 0.01 in0.3 mm 0.00 in0.0 mm 0.07 in1.8 mm
10:41 AM 42.5°F5.8°C 42.0°F5.6°C 98% 5.7 mph ENE9.2 kmh ENE 10.0 mph16.1 kmh 30.20 in1022.7 mb 0.01 in0.3 mm 0.00 in0.0 mm 0.07 in1.8 mm
10:46 AM 42.6°F5.9°C 42.1°F5.6°C 98% 6.9 mph E11.1 kmh E 11.0 mph17.7 kmh 30.20 in1022.7 mb 0.01 in0.3 mm 0.00 in0.0 mm 0.07 in1.8 mm
10:51 AM 42.6°F5.9°C 42.1°F5.6°C 98% 4.5 mph E7.2 kmh E 12.0 mph19.3 kmh 30.19 in1022.4 mb 0.01 in0.3 mm 0.00 in0.0 mm 0.07 in1.8 mm
10:56 AM 42.7°F5.9°C 42.2°F5.7°C 98% 4.4 mph E7.1 kmh E 12.0 mph19.3 kmh 30.19 in1022.4 mb 0.01 in0.3 mm 0.00 in0.0 mm 0.07 in1.8 mm
11:01 AM 42.8°F6.0°C 42.3°F5.7°C 98% 4.4 mph ENE7.1 kmh ENE 12.0 mph19.3 kmh 30.19 in1022.4 mb 0.01 in0.3 mm 0.00 in0.0 mm 0.07 in1.8 mm
11:06 AM 43.0°F6.1°C 42.5°F5.8°C 98% 3.5 mph ENE5.6 kmh ENE 12.0 mph19.3 kmh 30.19 in1022.4 mb 0.01 in0.3 mm 0.00 in0.0 mm 0.07 in1.8 mm
11:11 AM 43.1°F6.2°C 42.6°F5.9°C 98% 4.5 mph ENE7.2 kmh ENE 11.0 mph17.7 kmh 30.18 in1022.0 mb 0.01 in0.3 mm 0.00 in0.0 mm 0.07 in1.8 mm
11:16 AM 43.2°F6.2°C 42.7°F5.9°C 98% 3.8 mph ENE6.1 kmh ENE 9.0 mph14.5 kmh 30.18 in1022.0 mb 0.01 in0.3 mm 0.00 in0.0 mm 0.07 in1.8 mm
11:21 AM 43.3°F6.3°C 42.8°F6.0°C 98% 5.7 mph E9.2 kmh E 11.0 mph17.7 kmh 30.18 in1022.0 mb 0.00 in0.0 mm 0.00 in0.0 mm 0.07 in1.8 mm
11:26 AM 43.3°F6.3°C 42.8°F6.0°C 98% 4.9 mph E7.9 kmh E 11.0 mph17.7 kmh 30.18 in1022.0 mb 0.00 in0.0 mm 0.00 in0.0 mm 0.07 in1.8 mm
11:31 AM 43.4°F6.3°C 42.8°F6.0°C 98% 5.2 mph E8.4 kmh E 11.0 mph17.7 kmh 30.17 in1021.7 mb 0.00 in0.0 mm 0.00 in0.0 mm 0.07 in1.8 mm
11:36 AM 43.4°F6.3°C 42.8°F6.0°C 98% 7.0 mph E11.3 kmh E 12.0 mph19.3 kmh 30.18 in1022.0 mb 0.00 in0.0 mm 0.00 in0.0 mm 0.07 in1.8 mm
11:41 AM 43.6°F6.4°C 43.0°F6.1°C 98% 5.4 mph ENE8.7 kmh ENE 12.0 mph19.3 kmh 30.18 in1022.0 mb 0.00 in0.0 mm 0.00 in0.0 mm 0.07 in1.8 mm
11:46 AM 43.8°F6.6°C 43.2°F6.2°C 98% 2.1 mph ENE3.4 kmh ENE 12.0 mph19.3 kmh 30.19 in1022.4 mb 0.00 in0.0 mm 0.00 in0.0 mm 0.07 in1.8 mm
11:51 AM 43.9°F6.6°C 43.4°F6.3°C 98% 5.4 mph ENE8.7 kmh ENE 12.0 mph19.3 kmh 30.19 in1022.4 mb 0.00 in0.0 mm 0.00 in0.0 mm 0.07 in1.8 mm
11:56 AM 44.0°F6.7°C 43.4°F6.3°C 98% 2.0 mph ENE3.2 kmh ENE 10.0 mph16.1 kmh 30.19 in1022.4 mb 0.00 in0.0 mm 0.00 in0.0 mm 0.07 in1.8 mm
12:01 PM 44.1°F6.7°C 43.6°F6.4°C 98% 3.9 mph NE6.3 kmh NE 10.0 mph16.1 kmh 30.19 in1022.4 mb 0.00 in0.0 mm 0.00 in0.0 mm 0.07 in1.8 mm
12:06 PM 44.0°F6.7°C 43.4°F6.3°C 98% 5.5 mph NE8.9 kmh NE 9.0 mph14.5 kmh 30.19 in1022.4 mb 0.00 in0.0 mm 0.00 in0.0 mm 0.07 in1.8 mm
12:11 PM 44.2°F6.8°C 43.7°F6.5°C 98% 3.3 mph NE5.3 kmh NE 9.0 mph14.5 kmh 30.19 in1022.4 mb 0.00 in0.0 mm 0.00 in0.0 mm 0.07 in1.8 mm
12:16 PM 44.3°F6.8°C 43.7°F6.5°C 98% 2.2 mph NE3.5 kmh NE 9.0 mph14.5 kmh 30.19 in1022.4 mb 0.00 in0.0 mm 0.00 in0.0 mm 0.07 in1.8 mm
12:21 PM 44.4°F6.9°C 43.8°F6.6°C 98% 3.0 mph NE4.8 kmh NE 9.0 mph14.5 kmh 30.19 in1022.4 mb 0.00 in0.0 mm 0.00 in0.0 mm 0.07 in1.8 mm
12:26 PM 44.4°F6.9°C 43.9°F6.6°C 98% 4.5 mph NE7.2 kmh NE 11.0 mph17.7 kmh 30.18 in1022.0 mb 0.00 in0.0 mm 0.00 in0.0 mm 0.07 in1.8 mm
12:31 PM 44.5°F6.9°C 43.9°F6.6°C 98% 5.0 mph ENE8.0 kmh ENE 11.0 mph17.7 kmh 30.18 in1022.0 mb 0.00 in0.0 mm 0.00 in0.0 mm 0.07 in1.8 mm
12:36 PM 44.5°F6.9°C 44.0°F6.7°C 98% 6.1 mph NE9.8 kmh NE 11.0 mph17.7 kmh 30.17 in1021.7 mb 0.00 in0.0 mm 0.00 in0.0 mm 0.07 in1.8 mm
12:41 PM 44.7°F7.1°C 44.2°F6.8°C 98% 5.0 mph E8.0 kmh E 11.0 mph17.7 kmh 30.17 in1021.7 mb 0.00 in0.0 mm 0.00 in0.0 mm 0.07 in1.8 mm
12:46 PM 44.9°F7.2°C 44.4°F6.9°C 98% 5.2 mph ENE8.4 kmh ENE 10.0 mph16.1 kmh 30.17 in1021.7 mb 0.00 in0.0 mm 0.00 in0.0 mm 0.07 in1.8 mm
12:51 PM 44.9°F7.2°C 44.3°F6.8°C 98% 2.8 mph E4.5 kmh E 10.0 mph16.1 kmh 30.16 in1021.3 mb 0.00 in0.0 mm 0.00 in0.0 mm 0.07 in1.8 mm
12:56 PM 44.9°F7.2°C 44.4°F6.9°C 98% 6.6 mph ENE10.6 kmh ENE 10.0 mph16.1 kmh 30.16 in1021.3 mb 0.00 in0.0 mm 0.00 in0.0 mm 0.07 in1.8 mm
01:01 PM 45.0°F7.2°C 44.4°F6.9°C 98% 4.1 mph ENE6.6 kmh ENE 10.0 mph16.1 kmh 30.16 in1021.3 mb 0.00 in0.0 mm 0.00 in0.0 mm 0.07 in1.8 mm
01:06 PM 45.1°F7.3°C 44.5°F6.9°C 98% 3.9 mph NE6.3 kmh NE 10.0 mph16.1 kmh 30.16 in1021.3 mb 0.00 in0.0 mm 0.00 in0.0 mm 0.07 in1.8 mm
01:11 PM 45.4°F7.4°C 44.8°F7.1°C 98% 2.5 mph NE4.0 kmh NE 10.0 mph16.1 kmh 30.16 in1021.3 mb 0.00 in0.0 mm 0.00 in0.0 mm 0.07 in1.8 mm
01:16 PM 45.4°F7.4°C 44.8°F7.1°C 98% 4.6 mph ENE7.4 kmh ENE 10.0 mph16.1 kmh 30.16 in1021.3 mb 0.00 in0.0 mm 0.00 in0.0 mm 0.07 in1.8 mm
01:21 PM 45.3°F7.4°C 44.7°F7.1°C 98% 7.1 mph NE11.4 kmh NE 12.0 mph19.3 kmh 30.15 in1021.0 mb 0.00 in0.0 mm 0.00 in0.0 mm 0.07 in1.8 mm
01:26 PM 45.3°F7.4°C 44.8°F7.1°C 98% 5.4 mph ENE8.7 kmh ENE 12.0 mph19.3 kmh 30.15 in1021.0 mb 0.00 in0.0 mm 0.00 in0.0 mm 0.07 in1.8 mm
01:31 PM 45.5°F7.5°C 45.0°F7.2°C 98% 4.1 mph NE6.6 kmh NE 12.0 mph19.3 kmh 30.14 in1020.7 mb 0.00 in0.0 mm 0.00 in0.0 mm 0.07 in1.8 mm
01:36 PM 45.5°F7.5°C 45.0°F7.2°C 98% 4.3 mph NE6.9 kmh NE 12.0 mph19.3 kmh 30.15 in1021.0 mb 0.00 in0.0 mm 0.00 in0.0 mm 0.07 in1.8 mm
01:41 PM 45.7°F7.6°C 45.1°F7.3°C 98% 4.5 mph NE7.2 kmh NE 10.0 mph16.1 kmh 30.15 in1021.0 mb 0.00 in0.0 mm 0.00 in0.0 mm 0.07 in1.8 mm
01:46 PM 45.6°F7.6°C 45.0°F7.2°C 98% 4.0 mph ENE6.4 kmh ENE 10.0 mph16.1 kmh 30.14 in1020.7 mb 0.00 in0.0 mm 0.00 in0.0 mm 0.07 in1.8 mm
01:51 PM 45.7°F7.6°C 45.1°F7.3°C 98% 3.4 mph ENE5.5 kmh ENE 10.0 mph16.1 kmh 30.13 in1020.3 mb 0.00 in0.0 mm 0.00 in0.0 mm 0.07 in1.8 mm
01:56 PM 45.7°F7.6°C 45.2°F7.3°C 98% 3.4 mph NE5.5 kmh NE 10.0 mph16.1 kmh 30.13 in1020.3 mb 0.00 in0.0 mm 0.00 in0.0 mm 0.07 in1.8 mm
02:01 PM 46.0°F7.8°C 45.4°F7.4°C 98% 4.2 mph ENE6.8 kmh ENE 10.0 mph16.1 kmh 30.13 in1020.3 mb 0.00 in0.0 mm 0.00 in0.0 mm 0.07 in1.8 mm
02:06 PM 45.9°F7.7°C 45.4°F7.4°C 98% 4.3 mph E6.9 kmh E 10.0 mph16.1 kmh 30.13 in1020.3 mb 0.00 in0.0 mm 0.00 in0.0 mm 0.07 in1.8 mm
02:11 PM 45.9°F7.7°C 45.3°F7.4°C 98% 7.2 mph ENE11.6 kmh ENE 11.0 mph17.7 kmh 30.13 in1020.3 mb 0.00 in0.0 mm 0.00 in0.0 mm 0.07 in1.8 mm
02:16 PM 45.9°F7.7°C 45.4°F7.4°C 98% 5.3 mph ENE8.5 kmh ENE 12.0 mph19.3 kmh 30.13 in1020.3 mb 0.00 in0.0 mm 0.00 in0.0 mm 0.07 in1.8 mm
02:21 PM 46.0°F7.8°C 45.4°F7.4°C 98% 5.3 mph ENE8.5 kmh ENE 12.0 mph19.3 kmh 30.13 in1020.3 mb 0.00 in0.0 mm 0.00 in0.0 mm 0.07 in1.8 mm
02:26 PM 46.1°F7.8°C 45.5°F7.5°C 98% 3.0 mph NE4.8 kmh NE 12.0 mph19.3 kmh 30.13 in1020.3 mb 0.00 in0.0 mm 0.00 in0.0 mm 0.07 in1.8 mm
02:31 PM 46.2°F7.9°C 45.6°F7.6°C 98% 2.6 mph NE4.2 kmh NE 11.0 mph17.7 kmh 30.13 in1020.3 mb 0.00 in0.0 mm 0.00 in0.0 mm 0.07 in1.8 mm
02:36 PM 46.3°F7.9°C 45.8°F7.7°C 98% 2.8 mph NE4.5 kmh NE 11.0 mph17.7 kmh 30.13 in1020.3 mb 0.00 in0.0 mm 0.00 in0.0 mm 0.07 in1.8 mm
02:41 PM 46.4°F8.0°C 45.8°F7.7°C 98% 4.6 mph NE7.4 kmh NE 11.0 mph17.7 kmh 30.13 in1020.3 mb 0.00 in0.0 mm 0.00 in0.0 mm 0.07 in1.8 mm
02:46 PM 46.3°F7.9°C 45.7°F7.6°C 98% 6.6 mph ENE10.6 kmh ENE 11.0 mph17.7 kmh 30.13 in1020.3 mb 0.00 in0.0 mm 0.00 in0.0 mm 0.07 in1.8 mm
02:51 PM 46.5°F8.1°C 45.9°F7.7°C 98% 3.6 mph NE5.8 kmh NE 9.0 mph14.5 kmh 30.12 in1020.0 mb 0.00 in0.0 mm 0.00 in0.0 mm 0.07 in1.8 mm
02:56 PM 46.6°F8.1°C 46.0°F7.8°C 98% 2.3 mph NE3.7 kmh NE 9.0 mph14.5 kmh 30.13 in1020.3 mb 0.00 in0.0 mm 0.00 in0.0 mm 0.07 in1.8 mm
03:01 PM 46.6°F8.1°C 46.1°F7.8°C 98% 2.5 mph ENE4.0 kmh ENE 9.0 mph14.5 kmh 30.13 in1020.3 mb 0.00 in0.0 mm 0.00 in0.0 mm 0.07 in1.8 mm
03:06 PM 46.8°F8.2°C 46.3°F7.9°C 98% 2.6 mph E4.2 kmh E 8.0 mph12.9 kmh 30.13 in1020.3 mb 0.00 in0.0 mm 0.00 in0.0 mm 0.07 in1.8 mm
03:11 PM 46.5°F8.1°C 45.9°F7.7°C 98% 4.7 mph ENE7.6 kmh ENE 8.0 mph12.9 kmh 30.13 in1020.3 mb 0.00 in0.0 mm 0.00 in0.0 mm 0.07 in1.8 mm
03:15 PM 46.5°F8.1°C 45.9°F7.7°C 98% 3.9 mph NE6.3 kmh NE 9.0 mph14.5 kmh 30.14 in1020.7 mb 0.00 in0.0 mm 0.00 in0.0 mm 0.07 in1.8 mm
03:20 PM 46.6°F8.1°C 46.0°F7.8°C 98% 5.1 mph NE8.2 kmh NE 9.0 mph14.5 kmh 30.14 in1020.7 mb 0.00 in0.0 mm 0.00 in0.0 mm 0.07 in1.8 mm
03:25 PM 46.6°F8.1°C 46.1°F7.8°C 98% 3.7 mph NE6.0 kmh NE 9.0 mph14.5 kmh 30.14 in1020.7 mb 0.00 in0.0 mm 0.00 in0.0 mm 0.07 in1.8 mm
03:30 PM 46.5°F8.1°C 46.0°F7.8°C 98% 5.2 mph NE8.4 kmh NE 9.0 mph14.5 kmh 30.14 in1020.7 mb 0.00 in0.0 mm 0.00 in0.0 mm 0.07 in1.8 mm
03:35 PM 46.6°F8.1°C 46.0°F7.8°C 98% 5.0 mph NE8.0 kmh NE 8.0 mph12.9 kmh 30.13 in1020.3 mb 0.00 in0.0 mm 0.00 in0.0 mm 0.07 in1.8 mm
03:40 PM 46.6°F8.1°C 46.0°F7.8°C 98% 5.2 mph NE8.4 kmh NE 9.0 mph14.5 kmh 30.13 in1020.3 mb 0.00 in0.0 mm 0.00 in0.0 mm 0.07 in1.8 mm
03:45 PM 46.7°F8.2°C 46.1°F7.8°C 98% 5.3 mph ENE8.5 kmh ENE 9.0 mph14.5 kmh 30.13 in1020.3 mb 0.00 in0.0 mm 0.00 in0.0 mm 0.07 in1.8 mm
03:50 PM 46.7°F8.2°C 46.1°F7.8°C 98% 4.8 mph ENE7.7 kmh ENE 9.0 mph14.5 kmh 30.12 in1020.0 mb 0.00 in0.0 mm 0.00 in0.0 mm 0.07 in1.8 mm
03:55 PM 46.7°F8.2°C 46.1°F7.8°C 98% 6.0 mph ENE9.7 kmh ENE 11.0 mph17.7 kmh 30.12 in1020.0 mb 0.00 in0.0 mm 0.00 in0.0 mm 0.07 in1.8 mm
04:00 PM 46.8°F8.2°C 46.2°F7.9°C 98% 4.7 mph ENE7.6 kmh ENE 11.0 mph17.7 kmh 30.12 in1020.0 mb 0.00 in0.0 mm 0.00 in0.0 mm 0.07 in1.8 mm
04:05 PM 46.7°F8.2°C 46.1°F7.8°C 98% 2.9 mph E4.7 kmh E 13.0 mph20.9 kmh 30.11 in1019.6 mb 0.00 in0.0 mm 0.00 in0.0 mm 0.07 in1.8 mm
04:10 PM 46.8°F8.2°C 46.2°F7.9°C 98% 6.8 mph ENE10.9 kmh ENE 13.0 mph20.9 kmh 30.11 in1019.6 mb 0.00 in0.0 mm 0.00 in0.0 mm 0.07 in1.8 mm
04:15 PM 46.8°F8.2°C 46.2°F7.9°C 98% 5.7 mph ENE9.2 kmh ENE 13.0 mph20.9 kmh 30.11 in1019.6 mb 0.00 in0.0 mm 0.00 in0.0 mm 0.07 in1.8 mm
04:20 PM 46.8°F8.2°C 46.2°F7.9°C 98% 4.8 mph ENE7.7 kmh ENE 12.0 mph19.3 kmh 30.11 in1019.6 mb 0.00 in0.0 mm 0.00 in0.0 mm 0.07 in1.8 mm
04:25 PM 46.8°F8.2°C 46.2°F7.9°C 98% 3.1 mph ENE5.0 kmh ENE 12.0 mph19.3 kmh 30.11 in1019.6 mb 0.00 in0.0 mm 0.00 in0.0 mm 0.07 in1.8 mm
04:30 PM 46.9°F8.3°C 46.3°F7.9°C 98% 3.2 mph ENE5.1 kmh ENE 12.0 mph19.3 kmh 30.11 in1019.6 mb 0.00 in0.0 mm 0.00 in0.0 mm 0.07 in1.8 mm
04:35 PM 47.0°F8.3°C 46.4°F8.0°C 98% 4.7 mph ENE7.6 kmh ENE 12.0 mph19.3 kmh 30.11 in1019.6 mb 0.00 in0.0 mm 0.00 in0.0 mm 0.07 in1.8 mm
04:40 PM 47.0°F8.3°C 46.4°F8.0°C 98% 3.3 mph E5.3 kmh E 10.0 mph16.1 kmh 30.11 in1019.6 mb 0.00 in0.0 mm 0.00 in0.0 mm 0.07 in1.8 mm
04:45 PM 46.9°F8.3°C 46.3°F7.9°C 98% 4.7 mph E7.6 kmh E 9.0 mph14.5 kmh 30.10 in1019.3 mb 0.00 in0.0 mm 0.00 in0.0 mm 0.07 in1.8 mm
04:50 PM 46.9°F8.3°C 46.3°F7.9°C 98% 4.5 mph E7.2 kmh E 9.0 mph14.5 kmh 30.11 in1019.6 mb 0.00 in0.0 mm 0.00 in0.0 mm 0.07 in1.8 mm
04:55 PM 47.0°F8.3°C 46.5°F8.1°C 98% 1.0 mph NNE1.6 kmh NNE 8.0 mph12.9 kmh 30.13 in1020.3 mb 0.00 in0.0 mm 0.00 in0.0 mm 0.07 in1.8 mm
05:00 PM 47.1°F8.4°C 46.5°F8.1°C 98% 2.1 mph ENE3.4 kmh ENE 8.0 mph12.9 kmh 30.12 in1020.0 mb 0.00 in0.0 mm 0.00 in0.0 mm 0.07 in1.8 mm
05:05 PM 47.0°F8.3°C 46.5°F8.1°C 98% 4.3 mph E6.9 kmh E 8.0 mph12.9 kmh 30.12 in1020.0 mb 0.00 in0.0 mm 0.00 in0.0 mm 0.07 in1.8 mm
05:10 PM 47.1°F8.4°C 46.5°F8.1°C 98% 3.2 mph E5.1 kmh E 6.0 mph9.7 kmh 30.11 in1019.6 mb 0.00 in0.0 mm 0.00 in0.0 mm 0.07 in1.8 mm
05:15 PM 47.0°F8.3°C 46.4°F8.0°C 98% 2.2 mph ENE3.5 kmh ENE 7.0 mph11.3 kmh 30.12 in1020.0 mb 0.00 in0.0 mm 0.00 in0.0 mm 0.07 in1.8 mm
05:20 PM 47.1°F8.4°C 46.6°F8.1°C 98% 2.8 mph E4.5 kmh E 7.0 mph11.3 kmh 30.12 in1020.0 mb 0.00 in0.0 mm 0.00 in0.0 mm 0.07 in1.8 mm
05:25 PM 47.1°F8.4°C 46.5°F8.1°C 98% 2.1 mph ENE3.4 kmh ENE 7.0 mph11.3 kmh 30.12 in1020.0 mb 0.00 in0.0 mm 0.00 in0.0 mm 0.07 in1.8 mm
05:30 PM 47.2°F8.4°C 46.7°F8.2°C 98% 1.8 mph ENE2.9 kmh ENE 7.0 mph11.3 kmh 30.12 in1020.0 mb 0.00 in0.0 mm 0.00 in0.0 mm 0.07 in1.8 mm
05:35 PM 47.2°F8.4°C 46.6°F8.1°C 98% 3.4 mph ENE5.5 kmh ENE 6.0 mph9.7 kmh 30.12 in1020.0 mb 0.01 in0.3 mm 0.12 in3.0 mm 0.08 in2.0 mm
05:40 PM 47.2°F8.4°C 46.6°F8.1°C 98% 3.0 mph ENE4.8 kmh ENE 5.0 mph8.0 kmh 30.12 in1020.0 mb 0.01 in0.3 mm 0.00 in0.0 mm 0.08 in2.0 mm
05:45 PM 47.2°F8.4°C 46.6°F8.1°C 98% 1.2 mph ENE1.9 kmh ENE 5.0 mph8.0 kmh 30.12 in1020.0 mb 0.01 in0.3 mm 0.00 in0.0 mm 0.08 in2.0 mm
05:50 PM 47.2°F8.4°C 46.6°F8.1°C 98% 2.8 mph ENE4.5 kmh ENE 5.0 mph8.0 kmh 30.11 in1019.6 mb 0.01 in0.3 mm 0.00 in0.0 mm 0.08 in2.0 mm
05:55 PM 47.1°F8.4°C 46.5°F8.1°C 98% 4.2 mph NE6.8 kmh NE 6.0 mph9.7 kmh 30.12 in1020.0 mb 0.01 in0.3 mm 0.00 in0.0 mm 0.08 in2.0 mm
06:00 PM 47.1°F8.4°C 46.5°F8.1°C 98% 2.9 mph ENE4.7 kmh ENE 7.0 mph11.3 kmh 30.11 in1019.6 mb 0.01 in0.3 mm 0.00 in0.0 mm 0.08 in2.0 mm
06:05 PM 47.2°F8.4°C 46.6°F8.1°C 98% 2.8 mph ENE4.5 kmh ENE 7.0 mph11.3 kmh 30.12 in1020.0 mb 0.01 in0.3 mm 0.00 in0.0 mm 0.08 in2.0 mm
06:10 PM 47.1°F8.4°C 46.5°F8.1°C 98% 4.1 mph E6.6 kmh E 8.0 mph12.9 kmh 30.12 in1020.0 mb 0.01 in0.3 mm 0.00 in0.0 mm 0.08 in2.0 mm
06:15 PM 47.1°F8.4°C 46.6°F8.1°C 98% 3.8 mph ENE6.1 kmh ENE 8.0 mph12.9 kmh 30.12 in1020.0 mb 0.01 in0.3 mm 0.00 in0.0 mm 0.08 in2.0 mm
06:20 PM 47.1°F8.4°C 46.5°F8.1°C 98% 4.8 mph E7.7 kmh E 8.0 mph12.9 kmh 30.10 in1019.3 mb 0.01 in0.3 mm 0.00 in0.0 mm 0.08 in2.0 mm
06:25 PM 47.1°F8.4°C 46.6°F8.1°C 98% 4.6 mph E7.4 kmh E 10.0 mph16.1 kmh 30.10 in1019.3 mb 0.01 in0.3 mm 0.00 in0.0 mm 0.08 in2.0 mm
06:30 PM 47.2°F8.4°C 46.6°F8.1°C 98% 2.1 mph E3.4 kmh E 10.0 mph16.1 kmh 30.10 in1019.3 mb 0.01 in0.3 mm 0.00 in0.0 mm 0.08 in2.0 mm
06:35 PM 47.2°F8.4°C 46.7°F8.2°C 98% 4.5 mph ENE7.2 kmh ENE 10.0 mph16.1 kmh 30.11 in1019.6 mb 0.00 in0.0 mm 0.00 in0.0 mm 0.08 in2.0 mm
06:40 PM 47.1°F8.4°C 46.5°F8.1°C 98% 4.5 mph E7.2 kmh E 10.0 mph16.1 kmh 30.11 in1019.6 mb 0.00 in0.0 mm 0.00 in0.0 mm 0.08 in2.0 mm
06:45 PM 47.2°F8.4°C 46.6°F8.1°C 98% 2.9 mph E4.7 kmh E 9.0 mph14.5 kmh 30.11 in1019.6 mb 0.00 in0.0 mm 0.00 in0.0 mm 0.08 in2.0 mm
06:50 PM 47.2°F8.4°C 46.6°F8.1°C 98% 3.5 mph ENE5.6 kmh ENE 9.0 mph14.5 kmh 30.11 in1019.6 mb 0.00 in0.0 mm 0.00 in0.0 mm 0.08 in2.0 mm
06:55 PM 47.1°F8.4°C 46.6°F8.1°C 98% 4.4 mph ENE7.1 kmh ENE 8.0 mph12.9 kmh 30.11 in1019.6 mb 0.00 in0.0 mm 0.00 in0.0 mm 0.08 in2.0 mm
07:00 PM 47.1°F8.4°C 46.5°F8.1°C 98% 3.7 mph ENE6.0 kmh ENE 8.0 mph12.9 kmh 30.11 in1019.6 mb 0.00 in0.0 mm 0.00 in0.0 mm 0.08 in2.0 mm
07:05 PM 47.1°F8.4°C 46.5°F8.1°C 98% 4.3 mph ENE6.9 kmh ENE 9.0 mph14.5 kmh 30.12 in1020.0 mb 0.00 in0.0 mm 0.00 in0.0 mm 0.08 in2.0 mm
07:10 PM 47.1°F8.4°C 46.6°F8.1°C 98% 3.6 mph NE5.8 kmh NE 9.0 mph14.5 kmh 30.12 in1020.0 mb 0.00 in0.0 mm 0.00 in0.0 mm 0.08 in2.0 mm
07:16 PM 47.2°F8.4°C 46.7°F8.2°C 98% 1.9 mph ENE3.1 kmh ENE 9.0 mph14.5 kmh 30.12 in1020.0 mb 0.00 in0.0 mm 0.00 in0.0 mm 0.08 in2.0 mm
07:21 PM 47.1°F8.4°C 46.5°F8.1°C 98% 2.9 mph ENE4.7 kmh ENE 9.0 mph14.5 kmh 30.11 in1019.6 mb 0.00 in0.0 mm 0.00 in0.0 mm 0.08 in2.0 mm
07:25 PM 47.2°F8.4°C 46.6°F8.1°C 98% 2.7 mph NE4.3 kmh NE 7.0 mph11.3 kmh 30.11 in1019.6 mb 0.00 in0.0 mm 0.00 in0.0 mm 0.08 in2.0 mm
07:31 PM 47.1°F8.4°C 46.5°F8.1°C 98% 5.0 mph NE8.0 kmh NE 8.0 mph12.9 kmh 30.12 in1020.0 mb 0.00 in0.0 mm 0.00 in0.0 mm 0.08 in2.0 mm
07:36 PM 47.1°F8.4°C 46.5°F8.1°C 98% 1.8 mph NE2.9 kmh NE 8.0 mph12.9 kmh 30.12 in1020.0 mb 0.00 in0.0 mm 0.00 in0.0 mm 0.08 in2.0 mm
07:41 PM 47.0°F8.3°C 46.4°F8.0°C 98% 2.5 mph NE4.0 kmh NE 8.0 mph12.9 kmh 30.12 in1020.0 mb 0.00 in0.0 mm 0.00 in0.0 mm 0.08 in2.0 mm
07:46 PM 46.9°F8.3°C 46.4°F8.0°C 98% 4.2 mph ENE6.8 kmh ENE 10.0 mph16.1 kmh 30.12 in1020.0 mb 0.00 in0.0 mm 0.00 in0.0 mm 0.08 in2.0 mm
07:51 PM 46.9°F8.3°C 46.3°F7.9°C 98% 6.1 mph ENE9.8 kmh ENE 10.0 mph16.1 kmh 30.12 in1020.0 mb 0.00 in0.0 mm 0.00 in0.0 mm 0.08 in2.0 mm
07:56 PM 46.9°F8.3°C 46.3°F7.9°C 98% 2.2 mph ENE3.5 kmh ENE 10.0 mph16.1 kmh 30.11 in1019.6 mb 0.00 in0.0 mm 0.00 in0.0 mm 0.08 in2.0 mm
08:01 PM 46.9°F8.3°C 46.4°F8.0°C 98% 4.5 mph ENE7.2 kmh ENE 10.0 mph16.1 kmh 30.11 in1019.6 mb 0.00 in0.0 mm 0.00 in0.0 mm 0.08 in2.0 mm
08:06 PM 46.9°F8.3°C 46.3°F7.9°C 98% 3.3 mph ENE5.3 kmh ENE 8.0 mph12.9 kmh 30.11 in1019.6 mb 0.00 in0.0 mm 0.00 in0.0 mm 0.08 in2.0 mm
08:11 PM 46.8°F8.2°C 46.2°F7.9°C 98% 2.8 mph ENE4.5 kmh ENE 8.0 mph12.9 kmh 30.11 in1019.6 mb 0.00 in0.0 mm 0.00 in0.0 mm 0.08 in2.0 mm
08:15 PM 46.8°F8.2°C 46.2°F7.9°C 98% 2.0 mph NE3.2 kmh NE 8.0 mph12.9 kmh 30.11 in1019.6 mb 0.00 in0.0 mm 0.00 in0.0 mm 0.08 in2.0 mm
08:20 PM 46.8°F8.2°C 46.3°F7.9°C 98% 2.2 mph ENE3.5 kmh ENE 8.0 mph12.9 kmh 30.11 in1019.6 mb 0.00 in0.0 mm 0.00 in0.0 mm 0.08 in2.0 mm
08:25 PM 46.8°F8.2°C 46.2°F7.9°C 98% 3.1 mph E5.0 kmh E 7.0 mph11.3 kmh 30.11 in1019.6 mb 0.00 in0.0 mm 0.00 in0.0 mm 0.08 in2.0 mm
08:30 PM 46.8°F8.2°C 46.3°F7.9°C 98% 4.1 mph ENE6.6 kmh ENE 7.0 mph11.3 kmh 30.10 in1019.3 mb 0.00 in0.0 mm 0.00 in0.0 mm 0.08 in2.0 mm
08:35 PM 46.7°F8.2°C 46.1°F7.8°C 98% 3.4 mph NE5.5 kmh NE 7.0 mph11.3 kmh 30.11 in1019.6 mb 0.00 in0.0 mm 0.00 in0.0 mm 0.08 in2.0 mm
08:40 PM 46.8°F8.2°C 46.2°F7.9°C 98% 2.5 mph ENE4.0 kmh ENE 7.0 mph11.3 kmh 30.11 in1019.6 mb 0.00 in0.0 mm 0.00 in0.0 mm 0.08 in2.0 mm
08:45 PM 46.7°F8.2°C 46.1°F7.8°C 98% 3.7 mph E6.0 kmh E 7.0 mph11.3 kmh 30.11 in1019.6 mb 0.00 in0.0 mm 0.00 in0.0 mm 0.08 in2.0 mm
08:50 PM 46.7°F8.2°C 46.1°F7.8°C 98% 6.2 mph E10.0 kmh E 11.0 mph17.7 kmh 30.10 in1019.3 mb 0.00 in0.0 mm 0.00 in0.0 mm 0.08 in2.0 mm
08:55 PM 46.8°F8.2°C 46.2°F7.9°C 98% 2.3 mph E3.7 kmh E 11.0 mph17.7 kmh 30.10 in1019.3 mb 0.00 in0.0 mm 0.00 in0.0 mm 0.08 in2.0 mm
09:00 PM 46.7°F8.2°C 46.1°F7.8°C 98% 6.1 mph E9.8 kmh E 11.0 mph17.7 kmh 30.11 in1019.6 mb 0.00 in0.0 mm 0.00 in0.0 mm 0.08 in2.0 mm
09:05 PM 46.7°F8.2°C 46.2°F7.9°C 98% 3.1 mph E5.0 kmh E 11.0 mph17.7 kmh 30.10 in1019.3 mb 0.00 in0.0 mm 0.00 in0.0 mm 0.08 in2.0 mm
09:10 PM 46.7°F8.2°C 46.1°F7.8°C 98% 3.0 mph E4.8 kmh E 9.0 mph14.5 kmh 30.10 in1019.3 mb 0.00 in0.0 mm 0.00 in0.0 mm 0.08 in2.0 mm
09:15 PM 46.7°F8.2°C 46.1°F7.8°C 98% 3.6 mph E5.8 kmh E 9.0 mph14.5 kmh 30.10 in1019.3 mb 0.00 in0.0 mm 0.00 in0.0 mm 0.08 in2.0 mm
09:20 PM 46.8°F8.2°C 46.2°F7.9°C 98% 3.4 mph E5.5 kmh E 10.0 mph16.1 kmh 30.10 in1019.3 mb 0.00 in0.0 mm 0.00 in0.0 mm 0.08 in2.0 mm
09:25 PM 46.7°F8.2°C 46.1°F7.8°C 98% 2.6 mph E4.2 kmh E 10.0 mph16.1 kmh 30.10 in1019.3 mb 0.00 in0.0 mm 0.00 in0.0 mm 0.08 in2.0 mm
09:30 PM 46.8°F8.2°C 46.3°F7.9°C 98% 3.1 mph E5.0 kmh E 10.0 mph16.1 kmh 30.10 in1019.3 mb 0.00 in0.0 mm 0.00 in0.0 mm 0.08 in2.0 mm
09:35 PM 46.8°F8.2°C 46.3°F7.9°C 98% 2.0 mph E3.2 kmh E 10.0 mph16.1 kmh 30.11 in1019.6 mb 0.00 in0.0 mm 0.00 in0.0 mm 0.08 in2.0 mm
09:40 PM 46.8°F8.2°C 46.2°F7.9°C 98% 2.6 mph E4.2 kmh E 8.0 mph12.9 kmh 30.11 in1019.6 mb 0.00 in0.0 mm 0.00 in0.0 mm 0.08 in2.0 mm
09:45 PM 46.8°F8.2°C 46.2°F7.9°C 98% 2.7 mph E4.3 kmh E 8.0 mph12.9 kmh 30.11 in1019.6 mb 0.00 in0.0 mm 0.00 in0.0 mm 0.08 in2.0 mm
09:50 PM 46.9°F8.3°C 46.4°F8.0°C 98% 1.0 mph E1.6 kmh E 8.0 mph12.9 kmh 30.11 in1019.6 mb 0.00 in0.0 mm 0.00 in0.0 mm 0.08 in2.0 mm
09:55 PM 46.9°F8.3°C 46.3°F7.9°C 98% 3.1 mph E5.0 kmh E 8.0 mph12.9 kmh 30.11 in1019.6 mb 0.00 in0.0 mm 0.00 in0.0 mm 0.08 in2.0 mm
10:00 PM 46.9°F8.3°C 46.3°F7.9°C 98% 2.3 mph E3.7 kmh E 7.0 mph11.3 kmh 30.11 in1019.6 mb 0.00 in0.0 mm 0.00 in0.0 mm 0.08 in2.0 mm
10:05 PM 46.9°F8.3°C 46.4°F8.0°C 98% 2.3 mph E3.7 kmh E 6.0 mph9.7 kmh 30.11 in1019.6 mb 0.00 in0.0 mm 0.00 in0.0 mm 0.08 in2.0 mm
10:10 PM 47.0°F8.3°C 46.5°F8.1°C 98% 1.6 mph E2.6 kmh E 6.0 mph9.7 kmh 30.11 in1019.6 mb 0.00 in0.0 mm 0.00 in0.0 mm 0.08 in2.0 mm
10:15 PM 47.0°F8.3°C 46.4°F8.0°C 98% 2.4 mph E3.9 kmh E 6.0 mph9.7 kmh 30.11 in1019.6 mb 0.00 in0.0 mm 0.00 in0.0 mm 0.08 in2.0 mm
10:20 PM 47.1°F8.4°C 46.5°F8.1°C 98% 2.1 mph E3.4 kmh E 6.0 mph9.7 kmh 30.11 in1019.6 mb 0.00 in0.0 mm 0.00 in0.0 mm 0.08 in2.0 mm
10:25 PM 47.1°F8.4°C 46.5°F8.1°C 98% 1.1 mph ENE1.8 kmh ENE 6.0 mph9.7 kmh 30.12 in1020.0 mb 0.00 in0.0 mm 0.00 in0.0 mm 0.08 in2.0 mm
10:30 PM 47.1°F8.4°C 46.5°F8.1°C 98% 1.9 mph ENE3.1 kmh ENE 6.0 mph9.7 kmh 30.12 in1020.0 mb 0.00 in0.0 mm 0.00 in0.0 mm 0.08 in2.0 mm
10:35 PM 47.1°F8.4°C 46.5°F8.1°C 98% 1.8 mph E2.9 kmh E 5.0 mph8.0 kmh 30.12 in1020.0 mb 0.00 in0.0 mm 0.00 in0.0 mm 0.08 in2.0 mm
10:40 PM 47.1°F8.4°C 46.6°F8.1°C 98% 1.8 mph E2.9 kmh E 5.0 mph8.0 kmh 30.12 in1020.0 mb 0.00 in0.0 mm 0.00 in0.0 mm 0.08 in2.0 mm
10:45 PM 47.1°F8.4°C 46.5°F8.1°C 98% 2.0 mph NE3.2 kmh NE 5.0 mph8.0 kmh 30.13 in1020.3 mb 0.00 in0.0 mm 0.00 in0.0 mm 0.08 in2.0 mm
10:50 PM 47.2°F8.4°C 46.6°F8.1°C 98% 1.8 mph NE2.9 kmh NE 5.0 mph8.0 kmh 30.13 in1020.3 mb 0.00 in0.0 mm 0.00 in0.0 mm 0.08 in2.0 mm
10:55 PM 47.2°F8.4°C 46.6°F8.1°C 98% 1.8 mph NE2.9 kmh NE 6.0 mph9.7 kmh 30.12 in1020.0 mb 0.00 in0.0 mm 0.00 in0.0 mm 0.08 in2.0 mm
11:00 PM 47.1°F8.4°C 46.6°F8.1°C 98% 2.3 mph NE3.7 kmh NE 6.0 mph9.7 kmh 30.13 in1020.3 mb 0.00 in0.0 mm 0.00 in0.0 mm 0.08 in2.0 mm
11:05 PM 47.1°F8.4°C 46.5°F8.1°C 98% 2.3 mph NE3.7 kmh NE 6.0 mph9.7 kmh 30.13 in1020.3 mb 0.00 in0.0 mm 0.00 in0.0 mm 0.08 in2.0 mm
11:10 PM 47.1°F8.4°C 46.5°F8.1°C 98% 3.3 mph ENE5.3 kmh ENE 7.0 mph11.3 kmh 30.12 in1020.0 mb 0.00 in0.0 mm 0.00 in0.0 mm 0.08 in2.0 mm
11:15 PM 47.1°F8.4°C 46.5°F8.1°C 98% 1.2 mph NE1.9 kmh NE 7.0 mph11.3 kmh 30.13 in1020.3 mb 0.00 in0.0 mm 0.00 in0.0 mm 0.08 in2.0 mm
11:20 PM 47.1°F8.4°C 46.5°F8.1°C 98% 1.5 mph NE2.4 kmh NE 7.0 mph11.3 kmh 30.13 in1020.3 mb 0.00 in0.0 mm 0.00 in0.0 mm 0.08 in2.0 mm
11:25 PM 47.0°F8.3°C 46.5°F8.1°C 98% 3.1 mph ENE5.0 kmh ENE 7.0 mph11.3 kmh 30.12 in1020.0 mb 0.00 in0.0 mm 0.00 in0.0 mm 0.08 in2.0 mm
11:30 PM 46.9°F8.3°C 46.3°F7.9°C 98% 2.8 mph ENE4.5 kmh ENE 7.0 mph11.3 kmh 30.12 in1020.0 mb 0.00 in0.0 mm 0.00 in0.0 mm 0.08 in2.0 mm
11:35 PM 46.8°F8.2°C 46.2°F7.9°C 98% 2.9 mph E4.7 kmh E 7.0 mph11.3 kmh 30.12 in1020.0 mb 0.00 in0.0 mm 0.00 in0.0 mm 0.08 in2.0 mm
11:40 PM 46.8°F8.2°C 46.3°F7.9°C 98% 2.2 mph ENE3.5 kmh ENE 7.0 mph11.3 kmh 30.12 in1020.0 mb 0.00 in0.0 mm 0.00 in0.0 mm 0.08 in2.0 mm
11:45 PM 46.8°F8.2°C 46.2°F7.9°C 98% 2.4 mph E3.9 kmh E 7.0 mph11.3 kmh 30.12 in1020.0 mb 0.00 in0.0 mm 0.00 in0.0 mm 0.08 in2.0 mm
11:50 PM 46.8°F8.2°C 46.2°F7.9°C 98% 2.0 mph ENE3.2 kmh ENE 6.0 mph9.7 kmh 30.12 in1020.0 mb 0.00 in0.0 mm 0.00 in0.0 mm 0.08 in2.0 mm
11:55 PM 46.8°F8.2°C 46.2°F7.9°C 98% 3.0 mph NE4.8 kmh NE 6.0 mph9.7 kmh 30.12 in1020.0 mb 0.00 in0.0 mm 0.00 in0.0 mm 0.08 in2.0 mm